TimeCDT,TemperatureF,Dew PointF,Humidity,Sea Level PressureIn,VisibilityMPH,Wind Direction,Wind SpeedMPH,Gust SpeedMPH,PrecipitationIn,Events,Conditions,WindDirDegrees,DateUTC
12:53 AM,75.0,72.0,90,29.82,10.0,Calm,Calm,-,N/A,,Clear,0,2013-09-25 05:53:00
1:53 AM,73.9,71.1,91,29.82,10.0,Calm,Calm,-,N/A,,Clear,0,2013-09-25 06:53:00
2:53 AM,73.0,71.1,93,29.81,10.0,Calm,Calm,-,N/A,,Clear,0,2013-09-25 07:53:00
3:53 AM,71.1,70.0,96,29.80,10.0,Calm,Calm,-,N/A,,Clear,0,2013-09-25 08:53:00
4:53 AM,70.0,68.0,93,29.81,10.0,Calm,Calm,-,N/A,,Clear,0,2013-09-25 09:53:00
5:53 AM,70.0,68.0,93,29.81,10.0,Calm,Calm,-,N/A,,Clear,0,2013-09-25 10:53:00
6:36 AM,69.8,68.0,94,29.82,3.0,Calm,Calm,-,N/A,,Partly Cloudy,0,2013-09-25 11:36:00
6:53 AM,70.0,68.0,93,29.83,9.0,Calm,Calm,-,N/A,,Clear,0,2013-09-25 11:53:00
7:53 AM,72.0,70.0,93,29.84,10.0,Calm,Calm,-,N/A,,Clear,0,2013-09-25 12:53:00
8:53 AM,78.1,72.0,81,29.86,10.0,NNW,10.4,-,N/A,,Clear,330,2013-09-25 13:53:00
9:53 AM,80.1,72.0,76,29.86,10.0,NNW,9.2,-,N/A,,Clear,330,2013-09-25 14:53:00
10:53 AM,84.0,70.0,63,29.87,10.0,NNW,8.1,-,N/A,,Clear,330,2013-09-25 15:53:00
11:53 AM,88.0,68.0,51,29.86,10.0,North,6.9,-,N/A,,Clear,350,2013-09-25 16:53:00
12:53 PM,90.0,66.0,45,29.83,10.0,WNW,11.5,-,N/A,,Clear,290,2013-09-25 17:53:00
1:53 PM,91.0,60.1,35,29.81,10.0,NW,9.2,-,N/A,,Clear,310,2013-09-25 18:53:00
2:53 PM,91.9,57.9,32,29.79,10.0,NNW,10.4,-,N/A,,Clear,330,2013-09-25 19:53:00
3:53 PM,91.9,53.1,27,29.78,10.0,NW,11.5,-,N/A,,Clear,310,2013-09-25 20:53:00
4:53 PM,91.0,51.1,25,29.78,10.0,West,10.4,16.1,N/A,,Clear,280,2013-09-25 21:53:00
5:53 PM,89.1,55.0,31,29.78,10.0,NNW,10.4,-,N/A,,Clear,340,2013-09-25 22:53:00
6:53 PM,84.0,55.0,37,29.79,10.0,NNW,4.6,-,N/A,,Clear,340,2013-09-25 23:53:00
7:53 PM,75.0,66.9,76,29.81,10.0,Calm,Calm,-,N/A,,Clear,0,2013-09-26 00:53:00
8:53 PM,73.9,64.9,73,29.82,10.0,Calm,Calm,-,N/A,,Clear,0,2013-09-26 01:53:00
9:53 PM,72.0,66.9,84,29.83,10.0,Calm,Calm,-,N/A,,Clear,0,2013-09-26 02:53:00
10:53 PM,71.1,66.9,87,29.84,10.0,Calm,Calm,-,N/A,,Clear,0,2013-09-26 03:53:00
11:53 PM,70.0,66.9,90,29.84,10.0,Calm,Calm,-,N/A,,Clear,0,2013-09-26 04:53:00